createdAt,value
2019-01-25T00:01:02.931Z,108.12
2019-01-25T00:02:08.017Z,103.35
2019-01-25T00:03:13.389Z,111.28
2019-01-25T00:04:18.699Z,103.00
2019-01-25T00:05:23.724Z,105.97
2019-01-25T00:06:28.762Z,107.70
2019-01-25T00:07:33.808Z,112.25
2019-01-25T00:08:38.901Z,99.62
2019-01-25T00:09:43.846Z,96.40
2019-01-25T00:10:49.493Z,101.10
2019-01-25T00:11:55.086Z,104.40
2019-01-25T00:13:00.095Z,117.53
2019-01-25T00:14:06.008Z,105.50
2019-01-25T00:15:11.720Z,103.10
2019-01-25T00:16:16.862Z,113.42
2019-01-25T00:17:21.963Z,109.52
2019-01-25T00:18:27.038Z,106.72
2019-01-25T00:19:32.049Z,94.00
2019-01-25T00:20:37.340Z,111.28
2019-01-25T00:21:42.698Z,103.78
2019-01-25T00:22:47.732Z,109.52
2019-01-25T00:23:53.197Z,107.92
2019-01-25T00:24:59.335Z,114.75
2019-01-25T00:26:04.809Z,96.55
2019-01-25T00:27:10.073Z,109.80
2019-01-25T00:28:15.025Z,103.70
2019-01-25T00:29:20.331Z,101.40
2019-01-25T00:30:25.523Z,108.00
2019-01-25T00:31:30.621Z,104.72
2019-01-25T00:32:35.632Z,105.75
2019-01-25T00:33:41.095Z,97.88
2019-01-25T00:34:46.084Z,103.02
2019-01-25T00:35:51.124Z,103.42
2019-01-25T00:36:56.221Z,97.15
2019-01-25T00:38:01.168Z,107.37
2019-01-25T00:39:08.132Z,98.78
2019-01-25T00:40:14.216Z,95.95
2019-01-25T00:41:19.231Z,111.95
2019-01-25T00:42:24.253Z,105.78
2019-01-25T00:43:29.671Z,113.65
2019-01-25T00:44:34.720Z,104.92
2019-01-25T00:45:39.703Z,106.30
2019-01-25T00:46:44.740Z,110.63
2019-01-25T00:47:49.924Z,105.35
2019-01-25T00:48:54.860Z,116.30
2019-01-25T00:50:00.254Z,96.08
2019-01-25T00:51:05.385Z,102.07
2019-01-25T00:52:10.521Z,100.70
2019-01-25T00:53:15.763Z,107.27
2019-01-25T00:54:21.048Z,106.37
2019-01-25T00:55:26.394Z,103.38
2019-01-25T00:56:31.397Z,117.20
2019-01-25T00:57:36.721Z,99.70
2019-01-25T00:58:41.711Z,106.67
2019-01-25T00:59:47.091Z,102.45
2019-01-25T01:00:52.418Z,101.47
2019-01-25T01:01:57.552Z,104.05
2019-01-25T01:03:03.779Z,104.80
2019-01-25T01:04:08.909Z,108.22
2019-01-25T01:05:14.723Z,103.90
2019-01-25T01:06:20.934Z,103.27
2019-01-25T01:07:25.954Z,102.67
2019-01-25T01:08:30.966Z,101.22
2019-01-25T01:09:36.952Z,102.87
2019-01-25T01:10:42.067Z,110.03
2019-01-25T01:11:47.030Z,101.45
2019-01-25T01:12:53.072Z,90.67
2019-01-25T01:13:58.060Z,104.10
2019-01-25T01:15:03.283Z,96.70
2019-01-25T01:16:08.565Z,94.30
2019-01-25T01:17:13.625Z,105.70
2019-01-25T01:18:18.693Z,107.45
2019-01-25T01:19:23.712Z,104.58
2019-01-25T01:20:28.803Z,109.10
2019-01-25T01:21:33.730Z,105.05
2019-01-25T01:22:38.812Z,100.55
2019-01-25T01:23:43.821Z,97.45
2019-01-25T01:24:49.246Z,100.72
2019-01-25T01:25:54.317Z,105.25
2019-01-25T01:26:59.256Z,91.70
2019-01-25T01:28:04.326Z,103.00
2019-01-25T01:29:09.338Z,97.50
2019-01-25T01:30:19.744Z,97.95
2019-01-25T01:31:24.756Z,103.87
2019-01-25T01:32:29.766Z,110.78
2019-01-25T01:33:35.136Z,98.70
2019-01-25T01:34:40.066Z,103.17
2019-01-25T01:35:45.402Z,102.80
2019-01-25T01:36:50.434Z,102.55
2019-01-25T01:37:55.791Z,97.15
2019-01-25T01:39:00.834Z,87.97
2019-01-25T01:40:10.581Z,100.62
2019-01-25T01:41:15.578Z,91.15
2019-01-25T01:42:20.645Z,98.45
2019-01-25T01:43:25.723Z,95.72
2019-01-25T01:44:30.687Z,94.47
2019-01-25T01:45:35.620Z,104.60
2019-01-25T01:46:40.856Z,99.05
2019-01-25T01:47:45.951Z,114.12
2019-01-25T01:48:51.001Z,116.95
2019-01-25T01:49:56.023Z,89.85
2019-01-25T01:51:01.393Z,99.47
2019-01-25T01:52:06.683Z,110.40
2019-01-25T01:53:11.675Z,96.30
2019-01-25T01:54:16.874Z,105.00
2019-01-25T01:55:22.263Z,88.90
2019-01-25T01:56:27.531Z,101.33
2019-01-25T01:57:32.831Z,112.17
2019-01-25T01:58:37.840Z,98.45
2019-01-25T01:59:42.767Z,99.47
2019-01-25T02:00:47.784Z,96.92
2019-01-25T02:01:52.691Z,98.25
2019-01-25T02:02:58.042Z,90.40
2019-01-25T02:04:03.076Z,100.27
2019-01-25T02:05:09.577Z,99.47
2019-01-25T02:06:14.683Z,95.28
2019-01-25T02:07:20.017Z,107.00
2019-01-25T02:08:25.021Z,102.35
2019-01-25T02:09:29.946Z,99.97
2019-01-25T02:10:35.038Z,100.45
2019-01-25T02:11:40.117Z,100.55
2019-01-25T02:12:45.229Z,98.78
2019-01-25T02:13:50.462Z,97.40
2019-01-25T02:14:55.828Z,108.70
2019-01-25T02:16:01.221Z,102.92
2019-01-25T02:17:06.370Z,109.65
2019-01-25T02:18:11.689Z,103.95
2019-01-25T02:19:17.074Z,111.37
2019-01-25T02:20:32.384Z,92.70
2019-01-25T02:21:37.719Z,109.52
2019-01-25T02:22:42.688Z,101.18
2019-01-25T02:23:48.162Z,96.30
2019-01-25T02:24:53.159Z,107.47
2019-01-25T02:25:58.659Z,105.87
2019-01-25T02:27:03.689Z,105.27
2019-01-25T02:28:08.826Z,102.65
2019-01-25T02:29:13.823Z,106.32
2019-01-25T02:30:21.493Z,107.45
2019-01-25T02:31:26.489Z,99.87
2019-01-25T02:32:31.434Z,103.32
2019-01-25T02:33:36.799Z,97.78
2019-01-25T02:34:41.799Z,101.33
2019-01-25T02:35:47.152Z,109.32
2019-01-25T02:36:52.541Z,110.20
2019-01-25T02:37:57.820Z,102.50
2019-01-25T02:39:03.152Z,108.83
2019-01-25T02:40:09.679Z,107.52
2019-01-25T02:41:14.689Z,104.55
2019-01-25T02:42:19.707Z,125.50
2019-01-25T02:43:24.632Z,106.40
2019-01-25T02:44:29.567Z,97.37
2019-01-25T02:45:34.751Z,102.95
2019-01-25T02:46:40.040Z,106.60
2019-01-25T02:47:45.409Z,105.83
2019-01-25T02:48:50.426Z,112.62
2019-01-25T02:49:55.387Z,113.15
2019-01-25T02:51:00.363Z,110.55
2019-01-25T02:52:05.602Z,103.53
2019-01-25T02:53:10.532Z,103.27
2019-01-25T02:54:15.472Z,102.67
2019-01-25T02:55:20.690Z,97.08
2019-01-25T02:56:25.699Z,101.27
2019-01-25T02:57:30.693Z,107.43
2019-01-25T02:58:35.674Z,109.90
2019-01-25T02:59:40.871Z,110.57
2019-01-25T03:00:46.180Z,112.97
2019-01-25T03:01:51.135Z,113.70
2019-01-25T03:02:56.729Z,108.32
2019-01-25T03:04:02.101Z,107.65
2019-01-25T03:05:08.352Z,112.90
2019-01-25T03:06:13.709Z,111.52
2019-01-25T03:07:20.017Z,109.75
2019-01-25T03:08:25.104Z,105.85
2019-01-25T03:09:30.405Z,113.00
2019-01-25T03:10:35.817Z,100.67
2019-01-25T03:11:40.912Z,113.60
2019-01-25T03:12:46.111Z,112.22
2019-01-25T03:13:51.087Z,126.15
2019-01-25T03:14:56.443Z,116.62
2019-01-25T03:16:01.481Z,120.75
2019-01-25T03:17:06.525Z,125.10
2019-01-25T03:18:11.624Z,135.00
2019-01-25T03:19:16.585Z,122.90
2019-01-25T03:20:21.869Z,136.12
2019-01-25T03:21:26.771Z,120.72
2019-01-25T03:22:31.783Z,141.92
2019-01-25T03:23:36.991Z,137.10
2019-01-25T03:24:42.055Z,142.93
2019-01-25T03:25:47.066Z,137.00
2019-01-25T03:26:52.714Z,160.70
2019-01-25T03:27:57.795Z,155.90
2019-01-25T03:29:02.832Z,133.40
2019-01-25T03:30:09.619Z,152.27
2019-01-25T03:31:14.854Z,154.82
2019-01-25T03:32:19.872Z,147.70
2019-01-25T03:33:24.843Z,149.90
2019-01-25T03:34:30.108Z,154.10
2019-01-25T03:35:35.130Z,150.22
2019-01-25T03:36:40.623Z,152.25
2019-01-25T03:37:45.708Z,160.97
2019-01-25T03:38:50.673Z,147.57
2019-01-25T03:39:55.955Z,152.70
2019-01-25T03:41:01.227Z,134.37
2019-01-25T03:42:06.311Z,149.97
2019-01-25T03:43:11.606Z,159.30
2019-01-25T03:44:16.715Z,161.55
2019-01-25T03:45:22.208Z,154.30
2019-01-25T03:46:27.153Z,140.22
2019-01-25T03:47:32.336Z,155.52
2019-01-25T03:48:37.447Z,151.85
2019-01-25T03:49:42.561Z,170.77
2019-01-25T03:50:47.645Z,163.95
2019-01-25T03:51:52.622Z,169.20
2019-01-25T03:52:57.790Z,169.62
2019-01-25T03:54:02.813Z,155.35
2019-01-25T03:55:09.991Z,157.90
2019-01-25T03:56:15.047Z,164.67
2019-01-25T03:57:19.963Z,166.97
2019-01-25T03:58:24.926Z,152.75
2019-01-25T03:59:30.239Z,163.35
2019-01-25T04:00:35.277Z,155.32
2019-01-25T04:01:40.223Z,147.30
2019-01-25T04:02:45.414Z,169.72
2019-01-25T04:03:50.421Z,157.60
2019-01-25T04:04:55.654Z,133.45
2019-01-25T04:06:00.927Z,164.05
2019-01-25T04:07:06.144Z,149.30
2019-01-25T04:08:11.696Z,154.68
2019-01-25T04:09:16.787Z,155.95
2019-01-25T04:10:23.516Z,162.03
2019-01-25T04:11:28.522Z,156.20
2019-01-25T04:12:33.606Z,150.97
2019-01-25T04:13:38.620Z,161.60
2019-01-25T04:14:43.679Z,155.87
2019-01-25T04:15:48.695Z,155.45
2019-01-25T04:16:53.699Z,152.87
2019-01-25T04:17:58.762Z,148.68
2019-01-25T04:19:03.856Z,144.22
2019-01-25T04:20:11.058Z,169.82
2019-01-25T04:21:16.075Z,164.37
2019-01-25T04:22:21.162Z,161.00
2019-01-25T04:23:26.556Z,154.80
2019-01-25T04:24:31.482Z,155.55
2019-01-25T04:25:36.848Z,153.53
2019-01-25T04:26:42.115Z,163.92
2019-01-25T04:27:47.406Z,140.77
2019-01-25T04:28:52.347Z,157.45
2019-01-25T04:29:57.339Z,159.87
2019-01-25T04:31:02.403Z,142.20
2019-01-25T04:32:07.399Z,127.97
2019-01-25T04:33:12.422Z,179.78
2019-01-25T04:34:17.646Z,157.88
2019-01-25T04:35:22.610Z,143.35
2019-01-25T04:36:27.677Z,145.85
2019-01-25T04:37:33.292Z,166.50
2019-01-25T04:38:38.856Z,148.75
2019-01-25T04:39:44.156Z,148.43
2019-01-25T04:40:49.335Z,154.40
2019-01-25T04:41:54.272Z,146.62
2019-01-25T04:42:59.356Z,175.53
2019-01-25T04:44:04.679Z,165.73
2019-01-25T04:45:11.496Z,165.60
2019-01-25T04:46:16.651Z,155.78
2019-01-25T04:47:28.021Z,171.00
2019-01-25T04:48:33.036Z,169.05
2019-01-25T04:49:38.718Z,161.07
2019-01-25T04:50:43.813Z,152.38
2019-01-25T04:51:48.876Z,148.78
2019-01-25T04:52:55.429Z,138.57
2019-01-25T04:54:00.473Z,155.97
2019-01-25T04:55:14.761Z,127.25
2019-01-25T04:56:19.753Z,153.40
2019-01-25T04:57:25.093Z,154.10
2019-01-25T04:58:30.381Z,149.72
2019-01-25T04:59:35.626Z,157.15
2019-01-25T05:00:40.841Z,164.80
2019-01-25T05:01:45.947Z,148.80
2019-01-25T05:02:55.745Z,156.80
2019-01-25T05:04:00.775Z,133.63
2019-01-25T05:05:06.507Z,153.78
2019-01-25T05:06:14.566Z,165.47
2019-01-25T05:07:19.504Z,158.70
2019-01-25T05:08:24.553Z,151.27
2019-01-25T05:09:34.230Z,150.05
2019-01-25T05:10:39.755Z,162.03
2019-01-25T05:11:45.784Z,160.43
2019-01-25T05:12:54.164Z,137.55
2019-01-25T05:13:59.379Z,148.70
2019-01-25T05:15:05.249Z,135.70
2019-01-25T05:16:14.775Z,151.70
2019-01-25T05:17:20.040Z,142.68
2019-01-25T05:18:24.985Z,151.18
2019-01-25T05:19:32.725Z,155.15
2019-01-25T05:20:37.733Z,158.87
2019-01-25T05:21:43.118Z,156.87
2019-01-25T05:22:54.098Z,166.22
2019-01-25T05:23:59.026Z,151.75
2019-01-25T05:25:04.340Z,160.40
2019-01-25T05:26:09.591Z,158.40
2019-01-25T05:27:14.872Z,151.32
2019-01-25T05:28:21.005Z,169.65
2019-01-25T05:29:32.424Z,166.65
2019-01-25T05:30:37.442Z,157.78
2019-01-25T05:31:42.779Z,156.37
2019-01-25T05:32:47.804Z,152.95
2019-01-25T05:33:54.773Z,148.05
2019-01-25T05:34:59.722Z,154.27
2019-01-25T05:36:05.844Z,151.97
2019-01-25T05:37:12.339Z,150.60
2019-01-25T05:38:17.278Z,162.05
2019-01-25T05:39:22.208Z,162.32
2019-01-25T05:40:27.187Z,158.22
2019-01-25T05:41:32.222Z,148.02
2019-01-25T05:42:37.145Z,154.50
2019-01-25T05:43:43.299Z,147.30
2019-01-25T05:44:48.737Z,179.82
2019-01-25T05:45:53.761Z,179.35
2019-01-25T05:46:58.860Z,177.20
2019-01-25T05:48:04.109Z,163.75
2019-01-25T05:49:09.091Z,162.53
2019-01-25T05:50:14.637Z,157.90
2019-01-25T05:51:19.636Z,161.90
2019-01-25T05:52:24.754Z,154.70
2019-01-25T05:53:30.194Z,154.57
2019-01-25T05:54:35.235Z,155.35
2019-01-25T05:55:40.251Z,164.97
2019-01-25T05:56:45.324Z,172.80
2019-01-25T05:57:52.376Z,163.75
2019-01-25T05:58:57.470Z,166.68
2019-01-25T06:00:05.860Z,140.50
2019-01-25T06:01:10.981Z,167.13
2019-01-25T06:02:16.120Z,162.75
2019-01-25T06:03:21.534Z,145.90
2019-01-25T06:04:33.092Z,165.50
2019-01-25T06:05:38.688Z,170.35
2019-01-25T06:06:43.730Z,154.72
2019-01-25T06:07:49.095Z,164.20
2019-01-25T06:08:54.056Z,161.95
2019-01-25T06:09:59.006Z,160.22
2019-01-25T06:11:11.305Z,166.77
2019-01-25T06:12:16.419Z,148.17
2019-01-25T06:13:21.427Z,179.72
2019-01-25T06:14:27.785Z,163.92
2019-01-25T06:15:32.809Z,152.00
2019-01-25T06:16:41.346Z,142.85
2019-01-25T06:17:46.715Z,154.35
2019-01-25T06:18:51.758Z,172.00
2019-01-25T06:19:57.224Z,146.00
2019-01-25T06:21:02.453Z,156.12
2019-01-25T06:22:07.459Z,162.37
2019-01-25T06:23:12.541Z,160.15
2019-01-25T06:24:18.150Z,166.30
2019-01-25T06:25:23.234Z,163.82
2019-01-25T06:26:28.649Z,172.32
2019-01-25T06:27:37.666Z,154.95
2019-01-25T06:28:42.782Z,179.93
2019-01-25T06:29:48.030Z,155.40
2019-01-25T06:30:53.338Z,167.80
2019-01-25T06:31:58.329Z,156.50
2019-01-25T06:33:03.281Z,155.07
2019-01-25T06:34:08.657Z,175.95
2019-01-25T06:35:13.671Z,180.97
2019-01-25T06:36:19.133Z,170.65
2019-01-25T06:37:24.128Z,185.95
2019-01-25T06:38:29.268Z,175.27
2019-01-25T06:39:34.352Z,185.03
2019-01-25T06:40:39.538Z,166.92
2019-01-25T06:41:44.618Z,182.68
2019-01-25T06:42:49.765Z,155.22
2019-01-25T06:43:54.707Z,173.47
2019-01-25T06:44:59.640Z,201.65
2019-01-25T06:46:05.342Z,215.28
2019-01-25T06:47:10.367Z,234.87
2019-01-25T06:48:15.486Z,246.00
2019-01-25T06:49:20.592Z,258.77
2019-01-25T06:50:25.566Z,248.82
2019-01-25T06:51:30.936Z,228.35
2019-01-25T06:52:35.971Z,221.30
2019-01-25T06:53:41.977Z,190.12
2019-01-25T06:54:46.904Z,191.85
2019-01-25T06:55:51.989Z,196.63
2019-01-25T06:56:58.379Z,207.67
2019-01-25T06:58:10.751Z,202.68
2019-01-25T06:59:22.173Z,203.07
2019-01-25T07:00:28.119Z,176.47
2019-01-25T07:01:50.949Z,188.60
2019-01-25T07:02:57.739Z,179.42
2019-01-25T07:04:02.768Z,184.50
2019-01-25T07:05:09.121Z,176.22
2019-01-25T07:06:15.933Z,185.60
2019-01-25T07:07:25.992Z,181.85
2019-01-25T07:08:31.353Z,175.27
2019-01-25T07:09:36.761Z,183.22
2019-01-25T07:10:41.790Z,175.60
2019-01-25T07:11:51.491Z,192.22
2019-01-25T07:12:53.644Z,183.60
2019-01-25T07:13:59.745Z,162.40
2019-01-25T07:15:06.240Z,169.47
2019-01-25T07:16:11.980Z,182.80
2019-01-25T07:17:19.827Z,179.87
2019-01-25T07:18:24.768Z,178.80
2019-01-25T07:19:29.747Z,178.68
2019-01-25T07:20:34.864Z,182.62
2019-01-25T07:21:40.231Z,179.30
2019-01-25T07:22:45.359Z,190.77
2019-01-25T07:23:50.418Z,175.62
2019-01-25T07:24:57.257Z,168.47
2019-01-25T07:26:02.223Z,169.85
2019-01-25T07:27:07.245Z,180.80
2019-01-25T07:28:13.016Z,187.05
2019-01-25T07:29:20.023Z,154.55
2019-01-25T07:30:25.137Z,161.62
2019-01-25T07:31:30.328Z,167.35
2019-01-25T07:32:35.373Z,181.18
2019-01-25T07:33:41.028Z,164.15
2019-01-25T07:34:46.479Z,156.52
2019-01-25T07:35:51.516Z,177.22
2019-01-25T07:36:56.485Z,170.20
2019-01-25T07:38:01.816Z,160.55
2019-01-25T07:39:25.042Z,177.43
2019-01-25T07:40:30.973Z,161.68
2019-01-25T07:41:36.107Z,153.62
2019-01-25T07:42:41.209Z,140.50
2019-01-25T07:43:46.466Z,159.48
2019-01-25T07:44:51.685Z,172.28
2019-01-25T07:45:57.403Z,173.35
2019-01-25T07:47:02.531Z,156.55
2019-01-25T07:48:07.623Z,160.48
2019-01-25T07:49:12.775Z,161.70
2019-01-25T07:50:18.192Z,180.72
2019-01-25T07:51:23.292Z,163.50
2019-01-25T07:52:28.422Z,168.30
2019-01-25T07:53:33.507Z,162.55
2019-01-25T07:54:38.561Z,158.07
2019-01-25T07:55:43.751Z,168.60
2019-01-25T07:56:48.700Z,154.80
2019-01-25T07:57:54.421Z,152.72
2019-01-25T07:58:59.372Z,156.60
2019-01-25T08:00:05.336Z,152.68
2019-01-25T08:01:10.515Z,167.98
2019-01-25T08:02:15.588Z,169.22
2019-01-25T08:03:20.597Z,149.12
2019-01-25T08:04:25.797Z,159.80
2019-01-25T08:05:31.283Z,174.77
2019-01-25T08:06:36.521Z,158.32
2019-01-25T08:07:41.547Z,153.90
2019-01-25T08:08:46.897Z,142.98
2019-01-25T08:09:52.151Z,159.63
2019-01-25T08:10:57.468Z,153.27
2019-01-25T08:12:07.343Z,156.35
2019-01-25T08:13:09.314Z,150.00
2019-01-25T08:14:14.810Z,158.93
2019-01-25T08:15:20.380Z,153.75
2019-01-25T08:16:26.881Z,144.17
2019-01-25T08:17:31.921Z,163.07
2019-01-25T08:18:36.982Z,138.37
2019-01-25T08:19:43.267Z,153.05
2019-01-25T08:20:48.978Z,156.70
2019-01-25T08:21:54.013Z,147.25
2019-01-25T08:22:59.021Z,166.53
2019-01-25T08:24:04.166Z,170.92
2019-01-25T08:25:09.849Z,153.30
2019-01-25T08:26:15.629Z,144.77
2019-01-25T08:27:20.959Z,151.27
2019-01-25T08:28:26.169Z,148.43
2019-01-25T08:29:31.221Z,149.47
2019-01-25T08:30:36.788Z,168.80
2019-01-25T08:31:42.216Z,151.80
2019-01-25T08:32:48.268Z,145.30
2019-01-25T08:33:53.442Z,143.90
2019-01-25T08:34:58.515Z,158.87
2019-01-25T08:36:03.713Z,156.52
2019-01-25T08:37:08.700Z,167.20
2019-01-25T08:38:14.017Z,161.52
2019-01-25T08:39:19.070Z,142.98
2019-01-25T08:40:24.388Z,151.18
2019-01-25T08:41:29.937Z,145.82
2019-01-25T08:42:35.122Z,160.90
2019-01-25T08:43:40.480Z,144.82
2019-01-25T08:44:46.172Z,147.37
2019-01-25T08:45:51.361Z,163.32
2019-01-25T08:46:56.430Z,136.15
2019-01-25T08:48:01.527Z,162.77
2019-01-25T08:49:06.732Z,150.60
2019-01-25T08:50:17.258Z,148.87
2019-01-25T08:51:22.372Z,150.27
2019-01-25T08:52:27.774Z,140.22
2019-01-25T08:53:32.742Z,135.32
2019-01-25T08:54:38.106Z,145.35
2019-01-25T08:55:43.205Z,155.07
2019-01-25T08:56:48.315Z,132.05
2019-01-25T08:57:53.340Z,154.27
2019-01-25T08:58:58.933Z,153.23
2019-01-25T09:00:05.602Z,133.67
2019-01-25T09:01:10.928Z,150.70
2019-01-25T09:02:16.312Z,143.93
2019-01-25T09:03:21.742Z,136.90
2019-01-25T09:04:26.719Z,141.35
2019-01-25T09:05:31.854Z,135.63
2019-01-25T09:06:36.964Z,145.75
2019-01-25T09:07:42.073Z,153.90
2019-01-25T09:08:47.425Z,140.50
2019-01-25T09:09:52.421Z,145.95
2019-01-25T09:10:57.930Z,128.95
2019-01-25T09:12:03.188Z,138.45
2019-01-25T09:13:08.399Z,152.43
2019-01-25T09:14:13.765Z,153.23
2019-01-25T09:15:22.566Z,150.00
2019-01-25T09:16:28.120Z,138.77
2019-01-25T09:17:33.287Z,146.22
2019-01-25T09:18:38.573Z,142.13
2019-01-25T09:19:43.638Z,154.03
2019-01-25T09:20:50.321Z,147.50
2019-01-25T09:21:56.471Z,160.50
2019-01-25T09:23:01.609Z,141.00
2019-01-25T09:24:06.741Z,155.75
2019-01-25T09:25:11.857Z,140.35
2019-01-25T09:26:17.254Z,144.45
2019-01-25T09:27:23.845Z,149.35
2019-01-25T09:28:29.285Z,131.07
2019-01-25T09:29:34.268Z,143.68
2019-01-25T09:30:39.401Z,155.32
2019-01-25T09:31:44.351Z,158.87
2019-01-25T09:32:49.433Z,148.70
2019-01-25T09:33:54.780Z,129.72
2019-01-25T09:35:00.249Z,152.68
2019-01-25T09:36:05.581Z,156.28
2019-01-25T09:37:10.599Z,155.07
2019-01-25T09:38:15.785Z,157.18
2019-01-25T09:39:20.836Z,151.32
2019-01-25T09:40:26.853Z,157.47
2019-01-25T09:41:31.847Z,160.40
2019-01-25T09:42:37.168Z,139.62
2019-01-25T09:43:42.181Z,150.42
2019-01-25T09:44:47.396Z,149.77
2019-01-25T09:45:52.770Z,143.93
2019-01-25T09:46:57.796Z,141.60
2019-01-25T09:48:02.721Z,150.18
2019-01-25T09:49:07.811Z,159.32
2019-01-25T09:50:15.224Z,155.25
2019-01-25T09:51:20.267Z,147.68
2019-01-25T09:52:25.377Z,154.00
2019-01-25T09:53:30.461Z,156.35
2019-01-25T09:54:35.424Z,158.68
2019-01-25T09:55:40.551Z,180.45
2019-01-25T09:56:45.537Z,158.90
2019-01-25T09:57:51.737Z,162.12
2019-01-25T09:58:57.769Z,137.52
2019-01-25T10:00:02.936Z,144.35
2019-01-25T10:01:10.094Z,144.90
2019-01-25T10:02:15.419Z,142.10
2019-01-25T10:03:21.056Z,152.95
2019-01-25T10:04:25.991Z,147.28
2019-01-25T10:05:31.101Z,171.65
2019-01-25T10:06:36.685Z,149.57
2019-01-25T10:07:41.775Z,168.10
2019-01-25T10:08:47.231Z,146.02
2019-01-25T10:09:52.166Z,150.05
2019-01-25T10:10:57.410Z,160.88
2019-01-25T10:12:02.368Z,159.60
2019-01-25T10:13:07.400Z,173.72
2019-01-25T10:14:12.433Z,171.25
2019-01-25T10:15:19.684Z,154.23
2019-01-25T10:16:24.605Z,150.70
2019-01-25T10:17:29.965Z,166.20
2019-01-25T10:18:35.099Z,142.98
2019-01-25T10:19:40.473Z,165.15
2019-01-25T10:20:45.558Z,161.97
2019-01-25T10:21:50.619Z,153.93
2019-01-25T10:22:55.996Z,151.07
2019-01-25T10:24:01.849Z,131.93
2019-01-25T10:25:08.176Z,162.30
2019-01-25T10:26:13.257Z,165.03
2019-01-25T10:27:18.233Z,150.95
2019-01-25T10:28:23.892Z,151.70
2019-01-25T10:29:29.225Z,145.28
2019-01-25T10:30:34.568Z,136.62
2019-01-25T10:31:39.985Z,155.37
2019-01-25T10:32:45.344Z,139.75
2019-01-25T10:33:50.444Z,137.57
2019-01-25T10:34:55.558Z,136.50
2019-01-25T10:36:00.678Z,139.50
2019-01-25T10:37:06.029Z,130.57
2019-01-25T10:38:11.129Z,132.55
2019-01-25T10:39:16.722Z,133.82
2019-01-25T10:40:22.119Z,142.28
2019-01-25T10:41:27.073Z,151.53
2019-01-25T10:42:32.083Z,139.85
2019-01-25T10:43:37.388Z,135.35
2019-01-25T10:44:42.610Z,137.10
2019-01-25T10:45:47.600Z,126.47
2019-01-25T10:46:53.037Z,130.63
2019-01-25T10:47:58.269Z,121.37
2019-01-25T10:49:03.428Z,126.07
2019-01-25T10:50:08.579Z,136.25
2019-01-25T10:51:13.597Z,124.58
2019-01-25T10:52:18.570Z,146.65
2019-01-25T10:53:23.594Z,125.85
2019-01-25T10:54:29.028Z,128.82
2019-01-25T10:55:34.554Z,112.88
2019-01-25T10:56:41.917Z,121.95
2019-01-25T10:57:47.146Z,114.70
2019-01-25T10:58:52.082Z,112.17
2019-01-25T10:59:57.435Z,105.95
2019-01-25T11:01:02.751Z,109.87
2019-01-25T11:02:07.799Z,108.47
2019-01-25T11:03:12.789Z,107.05
2019-01-25T11:04:17.822Z,104.00
2019-01-25T11:05:24.205Z,95.05
2019-01-25T11:06:29.459Z,93.85
2019-01-25T11:07:34.836Z,78.25
2019-01-25T11:08:39.771Z,69.37
2019-01-25T11:09:45.024Z,67.67
2019-01-25T11:10:50.067Z,57.75
2019-01-25T11:11:55.077Z,58.58
2019-01-25T11:13:01.133Z,66.02
2019-01-25T11:14:06.623Z,56.18
2019-01-25T11:15:14.666Z,56.13
2019-01-25T11:16:20.003Z,52.10
2019-01-25T11:17:25.337Z,58.65
2019-01-25T11:18:30.363Z,52.17
2019-01-25T11:19:35.401Z,56.50
2019-01-25T11:20:40.433Z,49.65
2019-01-25T11:21:45.590Z,50.67
2019-01-25T11:22:51.179Z,47.60
2019-01-25T11:23:56.261Z,51.23
2019-01-25T11:25:01.272Z,47.88
2019-01-25T11:26:07.255Z,50.60
2019-01-25T11:27:12.328Z,52.62
2019-01-25T11:28:17.361Z,56.65
2019-01-25T11:29:22.322Z,46.80
2019-01-25T11:30:27.391Z,57.67
2019-01-25T11:31:32.741Z,48.90
2019-01-25T11:32:37.665Z,49.38
2019-01-25T11:33:42.799Z,55.83
2019-01-25T11:34:48.112Z,58.40
2019-01-25T11:35:53.068Z,49.18
2019-01-25T11:36:58.363Z,53.78
2019-01-25T11:38:03.960Z,52.45
2019-01-25T11:39:10.868Z,50.78
2019-01-25T11:40:19.462Z,62.05
2019-01-25T11:41:24.447Z,56.28
2019-01-25T11:42:29.459Z,54.13
2019-01-25T11:43:34.476Z,48.08
2019-01-25T11:44:39.488Z,54.40
2019-01-25T11:45:44.984Z,46.55
2019-01-25T11:46:49.928Z,48.73
2019-01-25T11:47:54.984Z,40.70
2019-01-25T11:49:00.025Z,41.50
2019-01-25T11:50:21.985Z,47.35
2019-01-25T11:51:16.865Z,43.17
2019-01-25T11:52:25.075Z,44.50
2019-01-25T11:53:29.055Z,37.70
2019-01-25T11:54:33.982Z,43.95
2019-01-25T11:55:39.177Z,43.13
2019-01-25T11:56:44.752Z,40.67
2019-01-25T11:57:49.731Z,36.10
2019-01-25T11:58:55.715Z,45.92
2019-01-25T12:00:00.660Z,37.10
2019-01-25T12:01:06.802Z,41.63
2019-01-25T12:02:11.946Z,38.53
2019-01-25T12:03:17.236Z,35.28
2019-01-25T12:04:22.589Z,30.02
2019-01-25T12:05:27.966Z,31.37
2019-01-25T12:06:33.236Z,35.25
2019-01-25T12:07:39.685Z,34.30
2019-01-25T12:08:44.686Z,32.83
2019-01-25T12:09:49.626Z,29.45
2019-01-25T12:10:54.867Z,27.48
2019-01-25T12:11:59.844Z,34.03
2019-01-25T12:13:05.149Z,28.35
2019-01-25T12:14:10.170Z,31.20
2019-01-25T12:15:16.460Z,33.53
2019-01-25T12:16:21.880Z,32.08
2019-01-25T12:17:27.130Z,29.10
2019-01-25T12:18:32.826Z,29.80
2019-01-25T12:19:38.193Z,34.58
2019-01-25T12:20:43.706Z,33.23
2019-01-25T12:21:49.705Z,29.87
2019-01-25T12:22:55.144Z,27.75
2019-01-25T12:24:00.453Z,27.55
2019-01-25T12:25:06.209Z,26.70
2019-01-25T12:26:11.421Z,28.50
2019-01-25T12:27:16.675Z,29.75
2019-01-25T12:28:22.726Z,29.70
2019-01-25T12:29:28.013Z,30.15
2019-01-25T12:30:37.677Z,30.17
2019-01-25T12:31:44.170Z,26.93
2019-01-25T12:32:49.973Z,32.08
2019-01-25T12:33:56.623Z,32.65
2019-01-25T12:35:07.228Z,31.90
2019-01-25T12:36:08.739Z,34.55
2019-01-25T12:37:14.038Z,30.15
2019-01-25T12:38:19.438Z,29.07
2019-01-25T12:39:24.731Z,32.88
2019-01-25T12:40:30.018Z,26.33
2019-01-25T12:41:34.996Z,27.60
2019-01-25T12:42:40.180Z,33.23
2019-01-25T12:43:45.219Z,35.15
2019-01-25T12:44:50.687Z,29.05
2019-01-25T12:45:55.739Z,30.12
2019-01-25T12:47:01.036Z,27.55
2019-01-25T12:48:06.439Z,29.67
2019-01-25T12:49:11.633Z,29.75
2019-01-25T12:50:22.689Z,34.50
2019-01-25T12:51:39.921Z,26.30
2019-01-25T12:52:45.130Z,35.68
2019-01-25T12:53:50.288Z,27.95
2019-01-25T12:54:55.489Z,30.43
2019-01-25T12:56:00.920Z,28.38
2019-01-25T12:57:06.336Z,31.80
2019-01-25T12:58:11.423Z,22.52
2019-01-25T12:59:16.454Z,29.63
2019-01-25T13:00:23.539Z,30.02
2019-01-25T13:01:34.863Z,27.73
2019-01-25T13:02:37.058Z,22.85
2019-01-25T13:03:42.050Z,24.65
2019-01-25T13:04:47.155Z,27.65
2019-01-25T13:05:53.434Z,26.57
2019-01-25T13:06:58.410Z,24.20
2019-01-25T13:08:04.143Z,25.25
2019-01-25T13:09:10.925Z,24.23
2019-01-25T13:10:17.033Z,23.77
2019-01-25T13:11:22.367Z,25.70
2019-01-25T13:12:27.315Z,26.00
2019-01-25T13:13:32.748Z,24.55
2019-01-25T13:14:38.776Z,23.83
2019-01-25T13:15:44.435Z,26.62
2019-01-25T13:16:51.153Z,24.90
2019-01-25T13:17:57.243Z,26.33
2019-01-25T13:19:02.194Z,23.77
2019-01-25T13:20:13.806Z,25.02
2019-01-25T13:21:18.803Z,26.30
2019-01-25T13:22:24.029Z,24.40
2019-01-25T13:23:28.977Z,24.23
2019-01-25T13:24:34.453Z,22.58
2019-01-25T13:25:39.701Z,24.70
2019-01-25T13:26:45.010Z,23.00
2019-01-25T13:27:50.615Z,20.23
2019-01-25T13:28:56.016Z,24.70
2019-01-25T13:30:01.030Z,21.45
2019-01-25T13:31:07.202Z,21.48
2019-01-25T13:32:14.503Z,25.20
2019-01-25T13:33:19.839Z,23.65
2019-01-25T13:34:25.626Z,24.75
2019-01-25T13:35:30.964Z,31.93
2019-01-25T13:36:36.617Z,23.35
2019-01-25T13:37:41.845Z,19.50
2019-01-25T13:38:46.849Z,20.30
2019-01-25T13:39:52.133Z,27.10
2019-01-25T13:40:57.590Z,33.42
2019-01-25T13:42:02.969Z,19.45
2019-01-25T13:43:08.406Z,18.50
2019-01-25T13:44:13.354Z,22.05
2019-01-25T13:45:19.175Z,18.30